Capitol Logistics 7551

Operating for MZN



KPDX
Portland International Airport
Portland, Oregon
PAFA
Fairbanks International Airport
Fairbanks, Alaska

Activity Log

Date Flight Route Aircraft Duration
No Flights Yet

Route Details

Aircraft Information
Primary: Boeing 737-800BCF
Backup: Boeing 757-200SF
Route Data
Distance: 1424nm
Duration: 4h 15m
Recm'd Route: OLM J126 YVR BRYGE J565 CASSL J569 YYD Q969 MITOM Q969 AXUBI Q969 GOROV Q969 YXY Q811 IGSOM Q902 AYZOL J502 RDFLG HRDNG2
Origin Wx: KPDX 180253Z 32004KT 10SM CLR 24/02 A3009 RMK AO2 SLP188 T02390017 55005
Dest. Wx: PAFA 180253Z 00000KT 10SM CLR 11/M04 A3043 RMK AO2 SLP313 T01111039 56021
Notes: